sensor_id;sensor_type;location;lat;lon;timestamp;P1;durP1;ratioP1;P2;durP2;ratioP2
69008;SDS011;56065;52.472;13.380;2023-10-31T00:00:03;11.17;;;2.30;;
69008;SDS011;56065;52.472;13.380;2023-10-31T00:02:29;8.85;;;2.75;;
69008;SDS011;56065;52.472;13.380;2023-10-31T00:04:54;7.10;;;2.00;;
69008;SDS011;56065;52.472;13.380;2023-10-31T00:07:19;10.43;;;2.70;;
69008;SDS011;56065;52.472;13.380;2023-10-31T00:09:45;8.10;;;2.40;;
69008;SDS011;56065;52.472;13.380;2023-10-31T00:12:10;8.87;;;2.57;;
69008;SDS011;56065;52.472;13.380;2023-10-31T00:14:35;6.32;;;2.13;;
69008;SDS011;56065;52.472;13.380;2023-10-31T00:17:01;9.13;;;3.00;;
69008;SDS011;56065;52.472;13.380;2023-10-31T00:19:26;10.47;;;2.37;;
69008;SDS011;56065;52.472;13.380;2023-10-31T00:21:52;10.03;;;2.80;;
69008;SDS011;56065;52.472;13.380;2023-10-31T00:24:17;10.60;;;3.17;;
69008;SDS011;56065;52.472;13.380;2023-10-31T00:26:42;9.37;;;2.63;;
69008;SDS011;56065;52.472;13.380;2023-10-31T00:29:08;10.97;;;2.63;;
69008;SDS011;56065;52.472;13.380;2023-10-31T00:31:33;8.13;;;2.47;;
69008;SDS011;56065;52.472;13.380;2023-10-31T00:34:00;6.95;;;2.33;;
69008;SDS011;56065;52.472;13.380;2023-10-31T00:36:26;9.88;;;3.05;;
69008;SDS011;56065;52.472;13.380;2023-10-31T00:38:52;8.93;;;2.90;;
69008;SDS011;56065;52.472;13.380;2023-10-31T00:41:17;10.33;;;2.60;;
69008;SDS011;56065;52.472;13.380;2023-10-31T00:43:42;8.03;;;2.70;;
69008;SDS011;56065;52.472;13.380;2023-10-31T00:46:08;9.73;;;2.80;;
69008;SDS011;56065;52.472;13.380;2023-10-31T00:48:33;10.10;;;2.92;;
69008;SDS011;56065;52.472;13.380;2023-10-31T00:51:05;9.77;;;2.50;;
69008;SDS011;56065;52.472;13.380;2023-10-31T00:53:31;9.02;;;2.97;;
69008;SDS011;56065;52.472;13.380;2023-10-31T00:55:56;8.75;;;2.78;;
69008;SDS011;56065;52.472;13.380;2023-10-31T00:58:22;10.07;;;2.93;;
69008;SDS011;56065;52.472;13.380;2023-10-31T01:00:48;7.60;;;2.83;;
69008;SDS011;56065;52.472;13.380;2023-10-31T01:03:13;7.10;;;2.20;;
69008;SDS011;56065;52.472;13.380;2023-10-31T01:05:38;8.47;;;2.57;;
69008;SDS011;56065;52.472;13.380;2023-10-31T01:08:04;8.83;;;2.50;;
69008;SDS011;56065;52.472;13.380;2023-10-31T01:10:29;8.63;;;2.87;;
69008;SDS011;56065;52.472;13.380;2023-10-31T01:12:54;8.53;;;2.63;;
69008;SDS011;56065;52.472;13.380;2023-10-31T01:15:20;10.33;;;2.53;;
69008;SDS011;56065;52.472;13.380;2023-10-31T01:17:45;9.07;;;2.60;;
69008;SDS011;56065;52.472;13.380;2023-10-31T01:20:11;8.83;;;2.57;;
69008;SDS011;56065;52.472;13.380;2023-10-31T01:22:36;10.68;;;2.67;;
69008;SDS011;56065;52.472;13.380;2023-10-31T01:25:02;6.60;;;2.43;;
69008;SDS011;56065;52.472;13.380;2023-10-31T01:27:28;8.68;;;2.88;;
69008;SDS011;56065;52.472;13.380;2023-10-31T01:29:53;6.57;;;2.60;;
69008;SDS011;56065;52.472;13.380;2023-10-31T01:32:18;8.77;;;2.57;;
69008;SDS011;56065;52.472;13.380;2023-10-31T01:34:44;8.80;;;2.63;;
69008;SDS011;56065;52.472;13.380;2023-10-31T01:37:09;10.20;;;3.10;;
69008;SDS011;56065;52.472;13.380;2023-10-31T01:39:37;7.50;;;2.90;;
69008;SDS011;56065;52.472;13.380;2023-10-31T01:42:03;9.95;;;2.83;;
69008;SDS011;56065;52.472;13.380;2023-10-31T01:44:28;9.33;;;2.53;;
69008;SDS011;56065;52.472;13.380;2023-10-31T01:46:54;9.07;;;2.85;;
69008;SDS011;56065;52.472;13.380;2023-10-31T01:49:20;10.00;;;3.00;;
69008;SDS011;56065;52.472;13.380;2023-10-31T01:51:46;8.65;;;2.55;;
69008;SDS011;56065;52.472;13.380;2023-10-31T01:54:12;10.35;;;3.40;;
69008;SDS011;56065;52.472;13.380;2023-10-31T01:56:39;8.67;;;2.80;;
69008;SDS011;56065;52.472;13.380;2023-10-31T01:59:05;7.53;;;2.70;;
69008;SDS011;56065;52.472;13.380;2023-10-31T02:01:31;9.27;;;3.20;;
69008;SDS011;56065;52.472;13.380;2023-10-31T02:03:57;7.43;;;2.95;;
69008;SDS011;56065;52.472;13.380;2023-10-31T02:06:23;9.00;;;3.30;;
69008;SDS011;56065;52.472;13.380;2023-10-31T02:08:49;9.85;;;3.30;;
69008;SDS011;56065;52.472;13.380;2023-10-31T02:11:14;8.93;;;3.40;;
69008;SDS011;56065;52.472;13.380;2023-10-31T02:13:40;7.93;;;3.20;;
69008;SDS011;56065;52.472;13.380;2023-10-31T02:16:05;13.37;;;5.17;;
69008;SDS011;56065;52.472;13.380;2023-10-31T02:18:31;12.32;;;4.53;;
69008;SDS011;56065;52.472;13.380;2023-10-31T02:20:57;10.52;;;4.13;;
69008;SDS011;56065;52.472;13.380;2023-10-31T02:23:23;11.40;;;4.53;;
69008;SDS011;56065;52.472;13.380;2023-10-31T02:25:49;9.57;;;3.80;;
69008;SDS011;56065;52.472;13.380;2023-10-31T02:28:14;8.20;;;3.27;;
69008;SDS011;56065;52.472;13.380;2023-10-31T02:30:40;12.37;;;4.23;;
69008;SDS011;56065;52.472;13.380;2023-10-31T02:33:05;10.75;;;4.32;;
69008;SDS011;56065;52.472;13.380;2023-10-31T02:35:31;10.47;;;3.90;;
69008;SDS011;56065;52.472;13.380;2023-10-31T02:37:56;9.27;;;3.50;;
69008;SDS011;56065;52.472;13.380;2023-10-31T02:40:21;9.47;;;3.53;;
69008;SDS011;56065;52.472;13.380;2023-10-31T02:42:47;12.60;;;3.83;;
69008;SDS011;56065;52.472;13.380;2023-10-31T02:45:13;13.47;;;4.63;;
69008;SDS011;56065;52.472;13.380;2023-10-31T02:47:38;12.77;;;3.80;;
69008;SDS011;56065;52.472;13.380;2023-10-31T02:50:04;8.57;;;3.40;;
69008;SDS011;56065;52.472;13.380;2023-10-31T02:52:30;8.00;;;3.17;;
69008;SDS011;56065;52.472;13.380;2023-10-31T02:54:55;16.33;;;3.45;;
69008;SDS011;56065;52.472;13.380;2023-10-31T02:57:21;7.80;;;3.37;;
69008;SDS011;56065;52.472;13.380;2023-10-31T02:59:46;11.00;;;3.50;;
69008;SDS011;56065;52.472;13.380;2023-10-31T03:02:12;13.23;;;3.60;;
69008;SDS011;56065;52.472;13.380;2023-10-31T03:04:37;8.83;;;3.77;;
69008;SDS011;56065;52.472;13.380;2023-10-31T03:07:03;9.17;;;2.80;;
69008;SDS011;56065;52.472;13.380;2023-10-31T03:09:28;10.95;;;3.50;;
69008;SDS011;56065;52.472;13.380;2023-10-31T03:11:54;8.83;;;2.93;;
69008;SDS011;56065;52.472;13.380;2023-10-31T03:14:19;9.20;;;3.23;;
69008;SDS011;56065;52.472;13.380;2023-10-31T03:16:44;9.57;;;4.07;;
69008;SDS011;56065;52.472;13.380;2023-10-31T03:19:10;10.00;;;3.23;;
69008;SDS011;56065;52.472;13.380;2023-10-31T03:21:35;9.38;;;3.25;;
69008;SDS011;56065;52.472;13.380;2023-10-31T03:24:01;8.40;;;3.37;;
69008;SDS011;56065;52.472;13.380;2023-10-31T03:26:26;10.57;;;3.50;;
69008;SDS011;56065;52.472;13.380;2023-10-31T03:28:52;10.40;;;3.28;;
69008;SDS011;56065;52.472;13.380;2023-10-31T03:31:22;8.68;;;3.80;;
69008;SDS011;56065;52.472;13.380;2023-10-31T03:33:48;14.17;;;4.13;;
69008;SDS011;56065;52.472;13.380;2023-10-31T03:36:13;10.63;;;3.63;;
69008;SDS011;56065;52.472;13.380;2023-10-31T03:38:39;9.87;;;3.57;;
69008;SDS011;56065;52.472;13.380;2023-10-31T03:41:04;8.80;;;3.67;;
69008;SDS011;56065;52.472;13.380;2023-10-31T03:43:29;8.25;;;3.25;;
69008;SDS011;56065;52.472;13.380;2023-10-31T03:45:55;9.73;;;3.77;;
69008;SDS011;56065;52.472;13.380;2023-10-31T03:48:20;12.90;;;4.10;;
69008;SDS011;56065;52.472;13.380;2023-10-31T03:50:46;9.60;;;3.55;;
69008;SDS011;56065;52.472;13.380;2023-10-31T03:53:12;9.47;;;3.40;;
69008;SDS011;56065;52.472;13.380;2023-10-31T03:55:37;8.57;;;3.27;;
69008;SDS011;56065;52.472;13.380;2023-10-31T03:58:03;8.77;;;3.30;;
69008;SDS011;56065;52.472;13.380;2023-10-31T04:00:28;10.80;;;3.57;;
69008;SDS011;56065;52.472;13.380;2023-10-31T04:02:53;8.47;;;3.43;;
69008;SDS011;56065;52.472;13.380;2023-10-31T04:05:19;10.17;;;3.23;;
69008;SDS011;56065;52.472;13.380;2023-10-31T04:07:46;10.30;;;3.58;;
69008;SDS011;56065;52.472;13.380;2023-10-31T04:10:11;10.63;;;3.78;;
69008;SDS011;56065;52.472;13.380;2023-10-31T04:12:37;8.83;;;4.23;;
69008;SDS011;56065;52.472;13.380;2023-10-31T04:15:03;10.30;;;3.70;;
69008;SDS011;56065;52.472;13.380;2023-10-31T04:17:28;7.15;;;3.08;;
69008;SDS011;56065;52.472;13.380;2023-10-31T04:19:54;10.93;;;3.33;;
69008;SDS011;56065;52.472;13.380;2023-10-31T04:22:19;9.50;;;3.60;;
69008;SDS011;56065;52.472;13.380;2023-10-31T04:24:44;11.03;;;3.80;;
69008;SDS011;56065;52.472;13.380;2023-10-31T04:27:10;8.53;;;3.83;;
69008;SDS011;56065;52.472;13.380;2023-10-31T04:29:35;9.77;;;3.50;;
69008;SDS011;56065;52.472;13.380;2023-10-31T04:32:00;11.63;;;4.00;;
69008;SDS011;56065;52.472;13.380;2023-10-31T04:34:26;8.20;;;3.33;;
69008;SDS011;56065;52.472;13.380;2023-10-31T04:36:51;7.83;;;3.53;;
69008;SDS011;56065;52.472;13.380;2023-10-31T04:39:17;9.03;;;3.70;;
69008;SDS011;56065;52.472;13.380;2023-10-31T04:41:42;10.20;;;4.47;;
69008;SDS011;56065;52.472;13.380;2023-10-31T04:44:07;8.40;;;3.35;;
69008;SDS011;56065;52.472;13.380;2023-10-31T04:46:33;8.93;;;3.70;;
69008;SDS011;56065;52.472;13.380;2023-10-31T04:48:58;9.27;;;3.57;;
69008;SDS011;56065;52.472;13.380;2023-10-31T04:51:24;8.87;;;3.90;;
69008;SDS011;56065;52.472;13.380;2023-10-31T04:53:49;11.57;;;4.00;;
69008;SDS011;56065;52.472;13.380;2023-10-31T04:56:15;8.77;;;3.80;;
69008;SDS011;56065;52.472;13.380;2023-10-31T04:58:41;8.47;;;3.83;;
69008;SDS011;56065;52.472;13.380;2023-10-31T05:01:08;9.30;;;3.90;;
69008;SDS011;56065;52.472;13.380;2023-10-31T05:03:37;11.20;;;4.75;;
69008;SDS011;56065;52.472;13.380;2023-10-31T05:06:02;9.47;;;4.10;;
69008;SDS011;56065;52.472;13.380;2023-10-31T05:08:28;9.35;;;3.83;;
69008;SDS011;56065;52.472;13.380;2023-10-31T05:10:55;9.70;;;4.25;;
69008;SDS011;56065;52.472;13.380;2023-10-31T05:13:20;10.70;;;4.43;;
69008;SDS011;56065;52.472;13.380;2023-10-31T05:15:45;12.43;;;4.57;;
69008;SDS011;56065;52.472;13.380;2023-10-31T05:18:11;10.70;;;4.17;;
69008;SDS011;56065;52.472;13.380;2023-10-31T05:20:36;9.60;;;4.00;;
69008;SDS011;56065;52.472;13.380;2023-10-31T05:23:01;11.27;;;4.50;;
69008;SDS011;56065;52.472;13.380;2023-10-31T05:25:27;9.03;;;3.93;;
69008;SDS011;56065;52.472;13.380;2023-10-31T05:27:52;10.23;;;4.23;;
69008;SDS011;56065;52.472;13.380;2023-10-31T05:30:17;11.40;;;4.20;;
69008;SDS011;56065;52.472;13.380;2023-10-31T05:32:43;8.63;;;3.67;;
69008;SDS011;56065;52.472;13.380;2023-10-31T05:35:09;11.35;;;4.25;;
69008;SDS011;56065;52.472;13.380;2023-10-31T05:37:35;8.90;;;4.10;;
69008;SDS011;56065;52.472;13.380;2023-10-31T05:40:00;10.63;;;4.43;;
69008;SDS011;56065;52.472;13.380;2023-10-31T05:42:26;10.60;;;4.63;;
69008;SDS011;56065;52.472;13.380;2023-10-31T05:44:52;9.53;;;3.80;;
69008;SDS011;56065;52.472;13.380;2023-10-31T05:47:19;8.73;;;3.38;;
69008;SDS011;56065;52.472;13.380;2023-10-31T05:49:44;8.40;;;3.50;;
69008;SDS011;56065;52.472;13.380;2023-10-31T05:52:09;8.17;;;3.63;;
69008;SDS011;56065;52.472;13.380;2023-10-31T05:54:35;7.35;;;3.05;;
69008;SDS011;56065;52.472;13.380;2023-10-31T05:57:00;8.73;;;4.00;;
69008;SDS011;56065;52.472;13.380;2023-10-31T05:59:26;8.13;;;3.13;;
69008;SDS011;56065;52.472;13.380;2023-10-31T06:01:51;8.63;;;3.30;;
69008;SDS011;56065;52.472;13.380;2023-10-31T06:04:16;8.43;;;3.07;;
69008;SDS011;56065;52.472;13.380;2023-10-31T06:06:42;8.40;;;3.00;;
69008;SDS011;56065;52.472;13.380;2023-10-31T06:09:07;7.23;;;2.73;;
69008;SDS011;56065;52.472;13.380;2023-10-31T06:11:35;9.00;;;3.05;;
69008;SDS011;56065;52.472;13.380;2023-10-31T06:14:00;7.33;;;3.10;;
69008;SDS011;56065;52.472;13.380;2023-10-31T06:16:25;8.57;;;3.20;;
69008;SDS011;56065;52.472;13.380;2023-10-31T06:18:51;8.87;;;3.10;;
69008;SDS011;56065;52.472;13.380;2023-10-31T06:21:16;10.33;;;3.20;;
69008;SDS011;56065;52.472;13.380;2023-10-31T06:23:42;8.65;;;3.00;;
69008;SDS011;56065;52.472;13.380;2023-10-31T06:26:10;6.83;;;2.90;;
69008;SDS011;56065;52.472;13.380;2023-10-31T06:28:35;6.20;;;2.60;;
69008;SDS011;56065;52.472;13.380;2023-10-31T06:31:02;8.23;;;3.03;;
69008;SDS011;56065;52.472;13.380;2023-10-31T06:33:27;8.85;;;2.80;;
69008;SDS011;56065;52.472;13.380;2023-10-31T06:35:53;7.67;;;2.83;;
69008;SDS011;56065;52.472;13.380;2023-10-31T06:38:19;6.35;;;2.38;;
69008;SDS011;56065;52.472;13.380;2023-10-31T06:40:44;6.40;;;2.83;;
69008;SDS011;56065;52.472;13.380;2023-10-31T06:43:10;6.35;;;2.25;;
69008;SDS011;56065;52.472;13.380;2023-10-31T06:45:35;6.43;;;2.27;;
69008;SDS011;56065;52.472;13.380;2023-10-31T06:48:01;6.10;;;2.47;;
69008;SDS011;56065;52.472;13.380;2023-10-31T06:50:27;6.28;;;2.30;;
69008;SDS011;56065;52.472;13.380;2023-10-31T06:52:53;5.37;;;2.10;;
69008;SDS011;56065;52.472;13.380;2023-10-31T06:55:18;5.43;;;2.13;;
69008;SDS011;56065;52.472;13.380;2023-10-31T06:57:43;7.07;;;1.98;;
69008;SDS011;56065;52.472;13.380;2023-10-31T07:00:10;9.30;;;2.47;;
69008;SDS011;56065;52.472;13.380;2023-10-31T07:02:36;4.68;;;1.77;;
69008;SDS011;56065;52.472;13.380;2023-10-31T07:05:01;7.33;;;1.93;;
69008;SDS011;56065;52.472;13.380;2023-10-31T07:07:28;7.45;;;2.47;;
69008;SDS011;56065;52.472;13.380;2023-10-31T07:09:53;5.90;;;2.00;;
69008;SDS011;56065;52.472;13.380;2023-10-31T07:12:19;5.20;;;1.70;;
69008;SDS011;56065;52.472;13.380;2023-10-31T07:14:44;5.05;;;1.42;;
69008;SDS011;56065;52.472;13.380;2023-10-31T07:17:09;5.53;;;1.73;;
69008;SDS011;56065;52.472;13.380;2023-10-31T07:19:35;3.60;;;1.07;;
69008;SDS011;56065;52.472;13.380;2023-10-31T07:22:00;5.63;;;1.50;;
69008;SDS011;56065;52.472;13.380;2023-10-31T07:24:26;4.97;;;1.50;;
69008;SDS011;56065;52.472;13.380;2023-10-31T07:26:52;5.60;;;1.70;;
69008;SDS011;56065;52.472;13.380;2023-10-31T07:29:18;4.63;;;1.17;;
69008;SDS011;56065;52.472;13.380;2023-10-31T07:31:44;4.85;;;1.25;;
69008;SDS011;56065;52.472;13.380;2023-10-31T07:34:09;3.50;;;0.80;;
69008;SDS011;56065;52.472;13.380;2023-10-31T07:36:36;4.07;;;0.90;;
69008;SDS011;56065;52.472;13.380;2023-10-31T07:39:01;2.45;;;0.68;;
69008;SDS011;56065;52.472;13.380;2023-10-31T07:41:28;3.05;;;0.80;;
69008;SDS011;56065;52.472;13.380;2023-10-31T07:43:54;5.93;;;0.97;;
69008;SDS011;56065;52.472;13.380;2023-10-31T07:46:20;3.23;;;0.63;;
69008;SDS011;56065;52.472;13.380;2023-10-31T07:48:45;3.45;;;0.63;;
69008;SDS011;56065;52.472;13.380;2023-10-31T07:51:10;2.40;;;0.50;;
69008;SDS011;56065;52.472;13.380;2023-10-31T07:53:36;3.43;;;0.70;;
69008;SDS011;56065;52.472;13.380;2023-10-31T07:56:01;2.77;;;0.47;;
69008;SDS011;56065;52.472;13.380;2023-10-31T07:58:27;2.70;;;0.50;;
69008;SDS011;56065;52.472;13.380;2023-10-31T08:00:52;2.67;;;0.53;;
69008;SDS011;56065;52.472;13.380;2023-10-31T08:03:17;2.30;;;0.50;;
69008;SDS011;56065;52.472;13.380;2023-10-31T08:05:43;2.93;;;0.40;;
69008;SDS011;56065;52.472;13.380;2023-10-31T08:08:08;2.67;;;0.33;;
69008;SDS011;56065;52.472;13.380;2023-10-31T08:10:33;1.53;;;0.40;;
69008;SDS011;56065;52.472;13.380;2023-10-31T08:12:59;2.05;;;0.40;;
69008;SDS011;56065;52.472;13.380;2023-10-31T08:15:25;2.43;;;0.50;;
69008;SDS011;56065;52.472;13.380;2023-10-31T08:17:50;2.20;;;0.50;;
69008;SDS011;56065;52.472;13.380;2023-10-31T08:20:15;3.20;;;0.40;;
69008;SDS011;56065;52.472;13.380;2023-10-31T08:22:41;1.77;;;0.50;;
69008;SDS011;56065;52.472;13.380;2023-10-31T08:25:09;1.40;;;0.55;;
69008;SDS011;56065;52.472;13.380;2023-10-31T08:27:35;1.67;;;0.40;;
69008;SDS011;56065;52.472;13.380;2023-10-31T08:30:00;0.97;;;0.30;;
69008;SDS011;56065;52.472;13.380;2023-10-31T08:32:27;3.33;;;0.40;;
69008;SDS011;56065;52.472;13.380;2023-10-31T08:34:52;2.57;;;0.37;;
69008;SDS011;56065;52.472;13.380;2023-10-31T08:37:19;1.33;;;0.50;;
69008;SDS011;56065;52.472;13.380;2023-10-31T08:39:44;2.63;;;0.40;;
69008;SDS011;56065;52.472;13.380;2023-10-31T08:42:10;2.78;;;0.30;;
69008;SDS011;56065;52.472;13.380;2023-10-31T08:44:35;1.60;;;0.40;;
69008;SDS011;56065;52.472;13.380;2023-10-31T08:47:02;2.05;;;0.40;;
69008;SDS011;56065;52.472;13.380;2023-10-31T08:49:28;1.08;;;0.30;;
69008;SDS011;56065;52.472;13.380;2023-10-31T08:51:54;1.70;;;0.40;;
69008;SDS011;56065;52.472;13.380;2023-10-31T08:54:19;4.90;;;0.40;;
69008;SDS011;56065;52.472;13.380;2023-10-31T08:56:45;3.00;;;0.28;;
69008;SDS011;56065;52.472;13.380;2023-10-31T08:59:10;2.03;;;0.20;;
69008;SDS011;56065;52.472;13.380;2023-10-31T09:01:36;1.37;;;0.33;;
69008;SDS011;56065;52.472;13.380;2023-10-31T09:04:01;1.07;;;0.30;;
69008;SDS011;56065;52.472;13.380;2023-10-31T09:06:27;0.60;;;0.20;;
69008;SDS011;56065;52.472;13.380;2023-10-31T09:08:52;1.47;;;0.30;;
69008;SDS011;56065;52.472;13.380;2023-10-31T09:11:17;1.87;;;0.40;;
69008;SDS011;56065;52.472;13.380;2023-10-31T09:13:43;2.00;;;0.30;;
69008;SDS011;56065;52.472;13.380;2023-10-31T09:16:08;1.77;;;0.30;;
69008;SDS011;56065;52.472;13.380;2023-10-31T09:18:34;1.05;;;0.30;;
69008;SDS011;56065;52.472;13.380;2023-10-31T09:20:59;0.97;;;0.27;;
69008;SDS011;56065;52.472;13.380;2023-10-31T09:23:25;1.90;;;0.30;;
69008;SDS011;56065;52.472;13.380;2023-10-31T09:25:50;1.60;;;0.30;;
69008;SDS011;56065;52.472;13.380;2023-10-31T09:28:15;1.40;;;0.30;;
69008;SDS011;56065;52.472;13.380;2023-10-31T09:30:41;1.23;;;0.33;;
69008;SDS011;56065;52.472;13.380;2023-10-31T09:33:07;3.45;;;0.30;;
69008;SDS011;56065;52.472;13.380;2023-10-31T09:35:32;2.93;;;0.30;;
69008;SDS011;56065;52.472;13.380;2023-10-31T09:37:57;2.63;;;0.47;;
69008;SDS011;56065;52.472;13.380;2023-10-31T09:40:23;2.23;;;0.37;;
69008;SDS011;56065;52.472;13.380;2023-10-31T09:42:48;1.60;;;0.40;;
69008;SDS011;56065;52.472;13.380;2023-10-31T09:45:17;1.20;;;0.45;;
69008;SDS011;56065;52.472;13.380;2023-10-31T09:47:43;1.00;;;0.30;;
69008;SDS011;56065;52.472;13.380;2023-10-31T09:50:08;1.17;;;0.30;;
69008;SDS011;56065;52.472;13.380;2023-10-31T09:52:35;1.88;;;0.40;;
69008;SDS011;56065;52.472;13.380;2023-10-31T09:55:01;2.38;;;0.40;;
69008;SDS011;56065;52.472;13.380;2023-10-31T09:57:28;1.37;;;0.50;;
69008;SDS011;56065;52.472;13.380;2023-10-31T09:59:54;0.85;;;0.30;;
69008;SDS011;56065;52.472;13.380;2023-10-31T10:02:19;2.23;;;0.47;;
69008;SDS011;56065;52.472;13.380;2023-10-31T10:04:44;2.40;;;0.40;;
69008;SDS011;56065;52.472;13.380;2023-10-31T10:07:13;2.20;;;0.70;;
69008;SDS011;56065;52.472;13.380;2023-10-31T10:09:44;1.03;;;0.30;;
69008;SDS011;56065;52.472;13.380;2023-10-31T10:12:14;1.98;;;0.40;;
69008;SDS011;56065;52.472;13.380;2023-10-31T10:14:40;2.60;;;0.70;;
69008;SDS011;56065;52.472;13.380;2023-10-31T10:19:47;1.77;;;0.40;;
69008;SDS011;56065;52.472;13.380;2023-10-31T10:22:13;2.63;;;0.43;;
69008;SDS011;56065;52.472;13.380;2023-10-31T10:24:40;3.13;;;0.60;;
69008;SDS011;56065;52.472;13.380;2023-10-31T10:27:09;2.42;;;0.40;;
69008;SDS011;56065;52.472;13.380;2023-10-31T10:29:34;1.45;;;0.40;;
69008;SDS011;56065;52.472;13.380;2023-10-31T10:32:00;2.92;;;0.50;;
69008;SDS011;56065;52.472;13.380;2023-10-31T10:34:26;3.07;;;0.60;;
69008;SDS011;56065;52.472;13.380;2023-10-31T10:36:51;1.70;;;0.50;;
69008;SDS011;56065;52.472;13.380;2023-10-31T10:39:20;2.70;;;0.50;;
69008;SDS011;56065;52.472;13.380;2023-10-31T10:41:51;4.28;;;0.60;;
69008;SDS011;56065;52.472;13.380;2023-10-31T10:44:27;2.78;;;0.60;;
69008;SDS011;56065;52.472;13.380;2023-10-31T10:47:09;2.43;;;0.50;;
69008;SDS011;56065;52.472;13.380;2023-10-31T10:49:38;4.28;;;0.50;;
69008;SDS011;56065;52.472;13.380;2023-10-31T11:00:07;3.67;;;0.60;;
69008;SDS011;56065;52.472;13.380;2023-10-31T11:02:34;3.13;;;0.70;;
69008;SDS011;56065;52.472;13.380;2023-10-31T11:05:02;2.38;;;0.60;;
69008;SDS011;56065;52.472;13.380;2023-10-31T11:07:30;2.80;;;0.60;;
69008;SDS011;56065;52.472;13.380;2023-10-31T11:09:56;3.45;;;0.60;;
69008;SDS011;56065;52.472;13.380;2023-10-31T11:12:23;2.67;;;0.73;;
69008;SDS011;56065;52.472;13.380;2023-10-31T11:14:50;1.80;;;0.65;;
69008;SDS011;56065;52.472;13.380;2023-10-31T11:17:27;2.80;;;0.70;;
69008;SDS011;56065;52.472;13.380;2023-10-31T11:19:55;3.05;;;0.73;;
69008;SDS011;56065;52.472;13.380;2023-10-31T11:22:21;3.22;;;0.80;;
69008;SDS011;56065;52.472;13.380;2023-10-31T11:24:47;3.63;;;0.63;;
69008;SDS011;56065;52.472;13.380;2023-10-31T11:27:14;1.92;;;0.50;;
69008;SDS011;56065;52.472;13.380;2023-10-31T11:29:41;2.67;;;0.77;;
69008;SDS011;56065;52.472;13.380;2023-10-31T11:32:10;2.70;;;0.60;;
69008;SDS011;56065;52.472;13.380;2023-10-31T11:34:39;2.23;;;0.70;;
69008;SDS011;56065;52.472;13.380;2023-10-31T11:42:52;2.67;;;0.60;;
69008;SDS011;56065;52.472;13.380;2023-10-31T11:45:34;2.60;;;0.60;;
69008;SDS011;56065;52.472;13.380;2023-10-31T11:48:07;2.97;;;0.77;;
69008;SDS011;56065;52.472;13.380;2023-10-31T11:50:35;2.42;;;0.63;;
69008;SDS011;56065;52.472;13.380;2023-10-31T11:53:04;2.17;;;0.52;;
69008;SDS011;56065;52.472;13.380;2023-10-31T11:55:46;3.33;;;0.70;;
69008;SDS011;56065;52.472;13.380;2023-10-31T12:00:37;1.80;;;0.40;;
69008;SDS011;56065;52.472;13.380;2023-10-31T12:03:02;1.80;;;0.30;;
69008;SDS011;56065;52.472;13.380;2023-10-31T12:05:28;1.03;;;0.40;;
69008;SDS011;56065;52.472;13.380;2023-10-31T12:07:53;2.17;;;0.40;;
69008;SDS011;56065;52.472;13.380;2023-10-31T12:10:22;2.00;;;0.35;;
69008;SDS011;56065;52.472;13.380;2023-10-31T12:12:57;1.10;;;0.40;;
69008;SDS011;56065;52.472;13.380;2023-10-31T12:15:23;1.90;;;0.50;;
69008;SDS011;56065;52.472;13.380;2023-10-31T12:17:49;3.33;;;0.40;;
69008;SDS011;56065;52.472;13.380;2023-10-31T12:20:15;1.60;;;0.30;;
69008;SDS011;56065;52.472;13.380;2023-10-31T12:22:43;2.67;;;0.40;;
69008;SDS011;56065;52.472;13.380;2023-10-31T12:25:10;1.03;;;0.30;;
69008;SDS011;56065;52.472;13.380;2023-10-31T12:27:45;2.13;;;0.40;;
69008;SDS011;56065;52.472;13.380;2023-10-31T12:30:14;1.70;;;0.40;;
69008;SDS011;56065;52.472;13.380;2023-10-31T12:32:43;1.25;;;0.40;;
69008;SDS011;56065;52.472;13.380;2023-10-31T12:35:19;2.77;;;0.30;;
69008;SDS011;56065;52.472;13.380;2023-10-31T12:37:47;1.73;;;0.30;;
69008;SDS011;56065;52.472;13.380;2023-10-31T12:40:15;1.55;;;0.30;;
69008;SDS011;56065;52.472;13.380;2023-10-31T12:42:43;1.35;;;0.20;;
69008;SDS011;56065;52.472;13.380;2023-10-31T12:45:09;1.27;;;0.30;;
69008;SDS011;56065;52.472;13.380;2023-10-31T12:47:35;0.83;;;0.30;;
69008;SDS011;56065;52.472;13.380;2023-10-31T12:50:07;1.45;;;0.30;;
69008;SDS011;56065;52.472;13.380;2023-10-31T12:52:50;1.88;;;0.30;;
69008;SDS011;56065;52.472;13.380;2023-10-31T12:55:17;1.60;;;0.30;;
69008;SDS011;56065;52.472;13.380;2023-10-31T12:57:45;1.35;;;0.28;;
69008;SDS011;56065;52.472;13.380;2023-10-31T13:00:14;0.70;;;0.30;;
69008;SDS011;56065;52.472;13.380;2023-10-31T13:02:40;1.35;;;0.30;;
69008;SDS011;56065;52.472;13.380;2023-10-31T13:05:13;1.23;;;0.30;;
69008;SDS011;56065;52.472;13.380;2023-10-31T13:07:47;1.00;;;0.37;;
69008;SDS011;56065;52.472;13.380;2023-10-31T13:10:17;2.17;;;0.40;;
69008;SDS011;56065;52.472;13.380;2023-10-31T13:12:44;1.52;;;0.40;;
69008;SDS011;56065;52.472;13.380;2023-10-31T13:15:11;1.77;;;0.43;;
69008;SDS011;56065;52.472;13.380;2023-10-31T13:17:37;2.55;;;0.30;;
69008;SDS011;56065;52.472;13.380;2023-10-31T13:20:04;1.70;;;0.20;;
69008;SDS011;56065;52.472;13.380;2023-10-31T13:22:31;1.20;;;0.30;;
69008;SDS011;56065;52.472;13.380;2023-10-31T13:24:56;2.33;;;0.30;;
69008;SDS011;56065;52.472;13.380;2023-10-31T13:27:22;0.60;;;0.20;;
69008;SDS011;56065;52.472;13.380;2023-10-31T13:29:47;1.47;;;0.30;;
69008;SDS011;56065;52.472;13.380;2023-10-31T13:32:14;2.03;;;0.30;;
69008;SDS011;56065;52.472;13.380;2023-10-31T13:34:40;0.98;;;0.30;;
69008;SDS011;56065;52.472;13.380;2023-10-31T13:37:06;2.23;;;0.50;;
69008;SDS011;56065;52.472;13.380;2023-10-31T13:39:33;2.50;;;0.20;;
69008;SDS011;56065;52.472;13.380;2023-10-31T13:41:58;0.50;;;0.20;;
69008;SDS011;56065;52.472;13.380;2023-10-31T13:44:24;0.60;;;0.20;;
69008;SDS011;56065;52.472;13.380;2023-10-31T13:46:49;1.53;;;0.20;;
69008;SDS011;56065;52.472;13.380;2023-10-31T13:49:14;1.77;;;0.20;;
69008;SDS011;56065;52.472;13.380;2023-10-31T13:51:40;0.97;;;0.20;;
69008;SDS011;56065;52.472;13.380;2023-10-31T13:54:05;0.53;;;0.20;;
69008;SDS011;56065;52.472;13.380;2023-10-31T13:56:31;1.33;;;0.30;;
69008;SDS011;56065;52.472;13.380;2023-10-31T13:58:57;1.58;;;0.30;;
69008;SDS011;56065;52.472;13.380;2023-10-31T14:01:23;2.27;;;0.80;;
69008;SDS011;56065;52.472;13.380;2023-10-31T14:03:50;0.98;;;0.20;;
69008;SDS011;56065;52.472;13.380;2023-10-31T14:06:15;1.23;;;0.20;;
69008;SDS011;56065;52.472;13.380;2023-10-31T14:08:41;1.03;;;0.20;;
69008;SDS011;56065;52.472;13.380;2023-10-31T14:11:07;1.30;;;0.30;;
69008;SDS011;56065;52.472;13.380;2023-10-31T14:13:32;1.57;;;0.50;;
69008;SDS011;56065;52.472;13.380;2023-10-31T14:16:00;1.38;;;0.20;;
69008;SDS011;56065;52.472;13.380;2023-10-31T14:18:25;1.00;;;0.20;;
69008;SDS011;56065;52.472;13.380;2023-10-31T14:20:50;2.10;;;0.37;;
69008;SDS011;56065;52.472;13.380;2023-10-31T14:23:17;0.57;;;0.22;;
69008;SDS011;56065;52.472;13.380;2023-10-31T14:25:42;1.30;;;0.30;;
69008;SDS011;56065;52.472;13.380;2023-10-31T14:28:07;2.00;;;0.20;;
69008;SDS011;56065;52.472;13.380;2023-10-31T14:30:33;6.43;;;0.47;;
69008;SDS011;56065;52.472;13.380;2023-10-31T14:32:58;2.37;;;0.33;;
69008;SDS011;56065;52.472;13.380;2023-10-31T14:35:24;1.27;;;0.30;;
69008;SDS011;56065;52.472;13.380;2023-10-31T14:37:49;0.97;;;0.30;;
69008;SDS011;56065;52.472;13.380;2023-10-31T14:40:14;1.13;;;0.40;;
69008;SDS011;56065;52.472;13.380;2023-10-31T14:42:40;1.73;;;0.35;;
69008;SDS011;56065;52.472;13.380;2023-10-31T14:45:05;2.90;;;0.40;;